sensor_id;sensor_type;location;lat;lon;timestamp;P1;durP1;ratioP1;P2;durP2;ratioP2
64487;SDS011;50864;45.050;39.014;2023-04-21T00:01:27;19.98;;;10.30;;
64487;SDS011;50864;45.050;39.014;2023-04-21T00:03:54;19.25;;;10.95;;
64487;SDS011;50864;45.050;39.014;2023-04-21T00:06:20;21.08;;;10.43;;
64487;SDS011;50864;45.050;39.014;2023-04-21T00:08:50;20.88;;;10.25;;
64487;SDS011;50864;45.050;39.014;2023-04-21T00:11:16;20.62;;;11.02;;
64487;SDS011;50864;45.050;39.014;2023-04-21T00:13:42;24.90;;;11.52;;
64487;SDS011;50864;45.050;39.014;2023-04-21T00:16:07;20.95;;;11.32;;
64487;SDS011;50864;45.050;39.014;2023-04-21T00:18:33;19.35;;;10.77;;
64487;SDS011;50864;45.050;39.014;2023-04-21T00:20:59;21.12;;;10.43;;
64487;SDS011;50864;45.050;39.014;2023-04-21T00:23:25;21.12;;;10.88;;
64487;SDS011;50864;45.050;39.014;2023-04-21T00:25:51;19.40;;;10.48;;
64487;SDS011;50864;45.050;39.014;2023-04-21T00:28:16;19.58;;;10.57;;
64487;SDS011;50864;45.050;39.014;2023-04-21T00:30:43;18.77;;;10.98;;
64487;SDS011;50864;45.050;39.014;2023-04-21T00:33:08;17.00;;;9.45;;
64487;SDS011;50864;45.050;39.014;2023-04-21T00:35:34;23.42;;;10.57;;
64487;SDS011;50864;45.050;39.014;2023-04-21T00:38:00;20.92;;;10.77;;
64487;SDS011;50864;45.050;39.014;2023-04-21T00:40:26;18.73;;;10.50;;
64487;SDS011;50864;45.050;39.014;2023-04-21T00:42:52;18.33;;;10.77;;
64487;SDS011;50864;45.050;39.014;2023-04-21T00:45:17;22.83;;;11.10;;
64487;SDS011;50864;45.050;39.014;2023-04-21T00:47:43;20.25;;;11.63;;
64487;SDS011;50864;45.050;39.014;2023-04-21T00:50:10;18.50;;;10.52;;
64487;SDS011;50864;45.050;39.014;2023-04-21T00:52:38;19.40;;;11.43;;
64487;SDS011;50864;45.050;39.014;2023-04-21T00:55:05;22.73;;;11.63;;
64487;SDS011;50864;45.050;39.014;2023-04-21T00:57:31;21.45;;;12.07;;
64487;SDS011;50864;45.050;39.014;2023-04-21T00:59:57;22.23;;;11.32;;
64487;SDS011;50864;45.050;39.014;2023-04-21T01:02:23;20.25;;;11.05;;
64487;SDS011;50864;45.050;39.014;2023-04-21T01:04:49;21.45;;;12.20;;
64487;SDS011;50864;45.050;39.014;2023-04-21T01:07:15;19.27;;;10.98;;
64487;SDS011;50864;45.050;39.014;2023-04-21T01:09:41;24.37;;;11.55;;
64487;SDS011;50864;45.050;39.014;2023-04-21T01:12:07;22.98;;;12.02;;
64487;SDS011;50864;45.050;39.014;2023-04-21T01:14:34;22.45;;;12.63;;
64487;SDS011;50864;45.050;39.014;2023-04-21T01:17:02;22.20;;;11.82;;
64487;SDS011;50864;45.050;39.014;2023-04-21T01:19:32;22.87;;;11.75;;
64487;SDS011;50864;45.050;39.014;2023-04-21T01:22:01;20.60;;;11.57;;
64487;SDS011;50864;45.050;39.014;2023-04-21T01:24:42;24.30;;;11.93;;
64487;SDS011;50864;45.050;39.014;2023-04-21T01:27:10;21.75;;;11.40;;
64487;SDS011;50864;45.050;39.014;2023-04-21T01:29:37;22.65;;;11.55;;
64487;SDS011;50864;45.050;39.014;2023-04-21T01:32:04;24.30;;;12.93;;
64487;SDS011;50864;45.050;39.014;2023-04-21T01:34:30;17.40;;;10.82;;
64487;SDS011;50864;45.050;39.014;2023-04-21T01:36:55;22.62;;;12.37;;
64487;SDS011;50864;45.050;39.014;2023-04-21T01:39:21;27.48;;;12.05;;
64487;SDS011;50864;45.050;39.014;2023-04-21T01:41:47;18.08;;;10.90;;
64487;SDS011;50864;45.050;39.014;2023-04-21T01:44:13;20.88;;;10.98;;
64487;SDS011;50864;45.050;39.014;2023-04-21T01:46:39;22.85;;;11.50;;
64487;SDS011;50864;45.050;39.014;2023-04-21T01:49:05;26.08;;;11.75;;
64487;SDS011;50864;45.050;39.014;2023-04-21T01:51:31;22.13;;;11.27;;
64487;SDS011;50864;45.050;39.014;2023-04-21T01:53:57;22.05;;;11.20;;
64487;SDS011;50864;45.050;39.014;2023-04-21T01:56:23;20.52;;;10.18;;
64487;SDS011;50864;45.050;39.014;2023-04-21T01:58:49;26.08;;;11.93;;
64487;SDS011;50864;45.050;39.014;2023-04-21T02:01:14;23.45;;;11.75;;
64487;SDS011;50864;45.050;39.014;2023-04-21T02:03:41;20.75;;;11.18;;
64487;SDS011;50864;45.050;39.014;2023-04-21T02:06:06;18.90;;;11.20;;
64487;SDS011;50864;45.050;39.014;2023-04-21T02:08:32;20.98;;;11.32;;
64487;SDS011;50864;45.050;39.014;2023-04-21T02:10:59;23.83;;;11.95;;
64487;SDS011;50864;45.050;39.014;2023-04-21T02:13:25;23.38;;;11.50;;
64487;SDS011;50864;45.050;39.014;2023-04-21T02:15:51;20.85;;;12.30;;
64487;SDS011;50864;45.050;39.014;2023-04-21T02:18:17;22.50;;;11.50;;
64487;SDS011;50864;45.050;39.014;2023-04-21T02:20:44;21.15;;;10.20;;
64487;SDS011;50864;45.050;39.014;2023-04-21T02:23:12;21.75;;;11.27;;
64487;SDS011;50864;45.050;39.014;2023-04-21T02:25:38;20.30;;;11.00;;
64487;SDS011;50864;45.050;39.014;2023-04-21T02:28:04;21.80;;;11.23;;
64487;SDS011;50864;45.050;39.014;2023-04-21T02:30:29;19.70;;;10.55;;
64487;SDS011;50864;45.050;39.014;2023-04-21T02:32:55;19.12;;;10.82;;
64487;SDS011;50864;45.050;39.014;2023-04-21T02:35:22;20.73;;;10.57;;
64487;SDS011;50864;45.050;39.014;2023-04-21T02:37:49;17.40;;;9.38;;
64487;SDS011;50864;45.050;39.014;2023-04-21T02:40:14;16.62;;;9.07;;
64487;SDS011;50864;45.050;39.014;2023-04-21T02:42:40;15.52;;;8.65;;
64487;SDS011;50864;45.050;39.014;2023-04-21T02:45:08;15.68;;;8.00;;
64487;SDS011;50864;45.050;39.014;2023-04-21T02:47:34;19.15;;;9.10;;
64487;SDS011;50864;45.050;39.014;2023-04-21T02:50:00;13.05;;;7.45;;
64487;SDS011;50864;45.050;39.014;2023-04-21T02:52:26;23.20;;;8.38;;
64487;SDS011;50864;45.050;39.014;2023-04-21T02:54:52;15.65;;;7.47;;
64487;SDS011;50864;45.050;39.014;2023-04-21T02:57:18;15.68;;;7.15;;
64487;SDS011;50864;45.050;39.014;2023-04-21T02:59:44;11.50;;;6.20;;
64487;SDS011;50864;45.050;39.014;2023-04-21T03:02:10;15.18;;;8.20;;
64487;SDS011;50864;45.050;39.014;2023-04-21T03:04:37;11.00;;;6.28;;
64487;SDS011;50864;45.050;39.014;2023-04-21T03:07:02;14.95;;;6.93;;
64487;SDS011;50864;45.050;39.014;2023-04-21T03:09:28;11.82;;;6.57;;
64487;SDS011;50864;45.050;39.014;2023-04-21T03:11:54;14.23;;;6.62;;
64487;SDS011;50864;45.050;39.014;2023-04-21T03:14:20;12.07;;;6.37;;
64487;SDS011;50864;45.050;39.014;2023-04-21T03:16:45;9.82;;;5.40;;
64487;SDS011;50864;45.050;39.014;2023-04-21T03:19:12;11.98;;;4.90;;
64487;SDS011;50864;45.050;39.014;2023-04-21T03:21:37;9.73;;;4.57;;
64487;SDS011;50864;45.050;39.014;2023-04-21T03:24:04;8.43;;;4.78;;
64487;SDS011;50864;45.050;39.014;2023-04-21T03:26:30;8.23;;;3.70;;
64487;SDS011;50864;45.050;39.014;2023-04-21T03:28:56;7.82;;;3.75;;
64487;SDS011;50864;45.050;39.014;2023-04-21T03:31:22;7.28;;;3.72;;
64487;SDS011;50864;45.050;39.014;2023-04-21T03:33:48;6.72;;;3.87;;
64487;SDS011;50864;45.050;39.014;2023-04-21T03:36:14;6.20;;;3.62;;
64487;SDS011;50864;45.050;39.014;2023-04-21T03:38:40;6.20;;;3.60;;
64487;SDS011;50864;45.050;39.014;2023-04-21T03:41:06;6.82;;;3.28;;
64487;SDS011;50864;45.050;39.014;2023-04-21T03:43:32;7.95;;;3.80;;
64487;SDS011;50864;45.050;39.014;2023-04-21T03:45:57;5.95;;;3.22;;
64487;SDS011;50864;45.050;39.014;2023-04-21T03:48:23;8.35;;;4.07;;
64487;SDS011;50864;45.050;39.014;2023-04-21T03:50:49;9.10;;;3.60;;
64487;SDS011;50864;45.050;39.014;2023-04-21T03:53:15;6.07;;;3.50;;
64487;SDS011;50864;45.050;39.014;2023-04-21T03:55:41;7.18;;;3.30;;
64487;SDS011;50864;45.050;39.014;2023-04-21T03:58:06;6.22;;;3.20;;
64487;SDS011;50864;45.050;39.014;2023-04-21T04:00:32;6.97;;;3.20;;
64487;SDS011;50864;45.050;39.014;2023-04-21T04:02:58;6.05;;;3.45;;
64487;SDS011;50864;45.050;39.014;2023-04-21T04:05:23;12.05;;;3.62;;
64487;SDS011;50864;45.050;39.014;2023-04-21T04:07:49;5.68;;;3.25;;
64487;SDS011;50864;45.050;39.014;2023-04-21T04:10:15;5.15;;;3.10;;
64487;SDS011;50864;45.050;39.014;2023-04-21T04:12:41;6.15;;;3.37;;
64487;SDS011;50864;45.050;39.014;2023-04-21T04:15:09;4.50;;;2.80;;
64487;SDS011;50864;45.050;39.014;2023-04-21T04:17:36;6.75;;;3.03;;
64487;SDS011;50864;45.050;39.014;2023-04-21T04:20:01;7.35;;;3.40;;
64487;SDS011;50864;45.050;39.014;2023-04-21T04:22:29;3.60;;;2.22;;
64487;SDS011;50864;45.050;39.014;2023-04-21T04:24:55;4.10;;;2.65;;
64487;SDS011;50864;45.050;39.014;2023-04-21T04:27:21;5.80;;;2.80;;
64487;SDS011;50864;45.050;39.014;2023-04-21T04:29:47;6.95;;;2.97;;
64487;SDS011;50864;45.050;39.014;2023-04-21T04:32:14;5.25;;;2.35;;
64487;SDS011;50864;45.050;39.014;2023-04-21T04:34:39;4.78;;;2.60;;
64487;SDS011;50864;45.050;39.014;2023-04-21T04:37:05;5.53;;;2.65;;
64487;SDS011;50864;45.050;39.014;2023-04-21T04:39:36;4.55;;;2.70;;
64487;SDS011;50864;45.050;39.014;2023-04-21T04:42:01;6.37;;;2.50;;
64487;SDS011;50864;45.050;39.014;2023-04-21T04:44:28;4.68;;;2.50;;
64487;SDS011;50864;45.050;39.014;2023-04-21T04:46:54;5.00;;;2.08;;
64487;SDS011;50864;45.050;39.014;2023-04-21T04:49:20;4.12;;;2.47;;
64487;SDS011;50864;45.050;39.014;2023-04-21T04:51:46;3.08;;;1.95;;
64487;SDS011;50864;45.050;39.014;2023-04-21T04:54:12;3.10;;;2.00;;
64487;SDS011;50864;45.050;39.014;2023-04-21T04:56:38;5.30;;;2.08;;
64487;SDS011;50864;45.050;39.014;2023-04-21T04:59:04;3.95;;;2.20;;
64487;SDS011;50864;45.050;39.014;2023-04-21T05:01:31;4.45;;;2.10;;
64487;SDS011;50864;45.050;39.014;2023-04-21T05:03:57;3.90;;;1.98;;
64487;SDS011;50864;45.050;39.014;2023-04-21T05:06:22;4.00;;;1.77;;
64487;SDS011;50864;45.050;39.014;2023-04-21T05:08:48;2.92;;;1.90;;
64487;SDS011;50864;45.050;39.014;2023-04-21T05:11:14;4.03;;;2.03;;
64487;SDS011;50864;45.050;39.014;2023-04-21T05:13:39;4.90;;;2.00;;
64487;SDS011;50864;45.050;39.014;2023-04-21T05:16:06;3.90;;;1.70;;
64487;SDS011;50864;45.050;39.014;2023-04-21T05:18:31;3.37;;;1.70;;
64487;SDS011;50864;45.050;39.014;2023-04-21T05:20:57;3.17;;;1.87;;
64487;SDS011;50864;45.050;39.014;2023-04-21T05:23:23;5.15;;;2.10;;
64487;SDS011;50864;45.050;39.014;2023-04-21T05:25:49;3.25;;;1.80;;
64487;SDS011;50864;45.050;39.014;2023-04-21T05:28:14;3.25;;;1.83;;
64487;SDS011;50864;45.050;39.014;2023-04-21T05:30:40;2.05;;;1.50;;
64487;SDS011;50864;45.050;39.014;2023-04-21T05:33:06;1.98;;;1.50;;
64487;SDS011;50864;45.050;39.014;2023-04-21T05:35:33;2.50;;;1.70;;
64487;SDS011;50864;45.050;39.014;2023-04-21T05:37:59;3.17;;;1.50;;
64487;SDS011;50864;45.050;39.014;2023-04-21T05:40:25;3.05;;;1.60;;
64487;SDS011;50864;45.050;39.014;2023-04-21T05:42:51;2.00;;;1.58;;
64487;SDS011;50864;45.050;39.014;2023-04-21T05:45:17;2.58;;;1.60;;
64487;SDS011;50864;45.050;39.014;2023-04-21T05:47:42;4.10;;;1.70;;
64487;SDS011;50864;45.050;39.014;2023-04-21T05:50:08;3.35;;;1.70;;
64487;SDS011;50864;45.050;39.014;2023-04-21T05:52:35;2.28;;;1.80;;
64487;SDS011;50864;45.050;39.014;2023-04-21T05:55:01;6.87;;;1.90;;
64487;SDS011;50864;45.050;39.014;2023-04-21T05:57:27;3.35;;;1.65;;
64487;SDS011;50864;45.050;39.014;2023-04-21T05:59:53;8.80;;;2.78;;
64487;SDS011;50864;45.050;39.014;2023-04-21T06:02:18;4.25;;;2.20;;
64487;SDS011;50864;45.050;39.014;2023-04-21T06:04:44;3.15;;;1.90;;
64487;SDS011;50864;45.050;39.014;2023-04-21T06:07:10;2.97;;;1.95;;
64487;SDS011;50864;45.050;39.014;2023-04-21T06:09:38;4.07;;;1.90;;
64487;SDS011;50864;45.050;39.014;2023-04-21T06:12:04;3.15;;;1.80;;
64487;SDS011;50864;45.050;39.014;2023-04-21T06:14:31;1.83;;;1.60;;
64487;SDS011;50864;45.050;39.014;2023-04-21T06:16:57;3.17;;;2.00;;
64487;SDS011;50864;45.050;39.014;2023-04-21T06:19:23;4.28;;;2.70;;
64487;SDS011;50864;45.050;39.014;2023-04-21T06:21:49;6.05;;;2.17;;
64487;SDS011;50864;45.050;39.014;2023-04-21T06:24:15;4.62;;;2.10;;
64487;SDS011;50864;45.050;39.014;2023-04-21T06:26:41;4.60;;;1.92;;
64487;SDS011;50864;45.050;39.014;2023-04-21T06:29:06;1.92;;;1.50;;
64487;SDS011;50864;45.050;39.014;2023-04-21T06:31:32;4.10;;;1.95;;
64487;SDS011;50864;45.050;39.014;2023-04-21T06:33:58;1.83;;;1.30;;
64487;SDS011;50864;45.050;39.014;2023-04-21T06:36:24;3.12;;;1.50;;
64487;SDS011;50864;45.050;39.014;2023-04-21T06:38:50;1.73;;;1.25;;
64487;SDS011;50864;45.050;39.014;2023-04-21T06:41:16;4.43;;;1.52;;
64487;SDS011;50864;45.050;39.014;2023-04-21T06:43:42;3.47;;;1.37;;
64487;SDS011;50864;45.050;39.014;2023-04-21T06:46:07;2.58;;;1.48;;
64487;SDS011;50864;45.050;39.014;2023-04-21T06:48:34;7.32;;;1.75;;
64487;SDS011;50864;45.050;39.014;2023-04-21T06:51:00;2.30;;;1.40;;
64487;SDS011;50864;45.050;39.014;2023-04-21T06:53:26;2.00;;;1.40;;
64487;SDS011;50864;45.050;39.014;2023-04-21T06:55:52;4.43;;;1.37;;
64487;SDS011;50864;45.050;39.014;2023-04-21T06:58:18;5.55;;;1.50;;
64487;SDS011;50864;45.050;39.014;2023-04-21T07:00:44;2.95;;;1.50;;
64487;SDS011;50864;45.050;39.014;2023-04-21T07:03:10;4.43;;;1.50;;
64487;SDS011;50864;45.050;39.014;2023-04-21T07:05:36;3.42;;;1.50;;
64487;SDS011;50864;45.050;39.014;2023-04-21T07:08:02;5.05;;;1.50;;
64487;SDS011;50864;45.050;39.014;2023-04-21T07:10:28;5.07;;;1.75;;
64487;SDS011;50864;45.050;39.014;2023-04-21T07:12:54;6.18;;;1.50;;
64487;SDS011;50864;45.050;39.014;2023-04-21T07:15:20;3.87;;;1.58;;
64487;SDS011;50864;45.050;39.014;2023-04-21T07:17:46;1.42;;;1.30;;
64487;SDS011;50864;45.050;39.014;2023-04-21T07:20:12;3.58;;;1.60;;
64487;SDS011;50864;45.050;39.014;2023-04-21T07:22:38;2.40;;;1.60;;
64487;SDS011;50864;45.050;39.014;2023-04-21T07:25:04;3.20;;;1.37;;
64487;SDS011;50864;45.050;39.014;2023-04-21T07:27:33;3.35;;;1.40;;
64487;SDS011;50864;45.050;39.014;2023-04-21T07:30:00;3.70;;;1.60;;
64487;SDS011;50864;45.050;39.014;2023-04-21T07:32:26;3.87;;;1.58;;
64487;SDS011;50864;45.050;39.014;2023-04-21T07:34:52;2.95;;;1.62;;
64487;SDS011;50864;45.050;39.014;2023-04-21T07:37:21;3.85;;;1.67;;
64487;SDS011;50864;45.050;39.014;2023-04-21T07:39:59;3.08;;;1.50;;
64487;SDS011;50864;45.050;39.014;2023-04-21T07:42:25;5.35;;;1.60;;
64487;SDS011;50864;45.050;39.014;2023-04-21T07:44:51;2.90;;;1.55;;
64487;SDS011;50864;45.050;39.014;2023-04-21T07:47:17;3.20;;;1.50;;
64487;SDS011;50864;45.050;39.014;2023-04-21T07:49:43;5.37;;;1.50;;
64487;SDS011;50864;45.050;39.014;2023-04-21T07:52:09;4.20;;;1.60;;
64487;SDS011;50864;45.050;39.014;2023-04-21T07:54:35;4.62;;;1.85;;
64487;SDS011;50864;45.050;39.014;2023-04-21T07:57:00;4.60;;;2.42;;
64487;SDS011;50864;45.050;39.014;2023-04-21T07:59:27;2.47;;;1.55;;
64487;SDS011;50864;45.050;39.014;2023-04-21T08:01:52;4.82;;;1.70;;
64487;SDS011;50864;45.050;39.014;2023-04-21T08:04:18;2.40;;;1.60;;
64487;SDS011;50864;45.050;39.014;2023-04-21T08:06:44;2.15;;;1.40;;
64487;SDS011;50864;45.050;39.014;2023-04-21T08:09:10;4.43;;;1.62;;
64487;SDS011;50864;45.050;39.014;2023-04-21T08:11:36;4.40;;;2.10;;
64487;SDS011;50864;45.050;39.014;2023-04-21T08:14:01;5.18;;;2.05;;
64487;SDS011;50864;45.050;39.014;2023-04-21T08:16:28;2.62;;;1.80;;
64487;SDS011;50864;45.050;39.014;2023-04-21T08:18:54;1.65;;;1.52;;
64487;SDS011;50864;45.050;39.014;2023-04-21T08:21:20;2.28;;;1.60;;
64487;SDS011;50864;45.050;39.014;2023-04-21T08:23:45;2.45;;;1.65;;
64487;SDS011;50864;45.050;39.014;2023-04-21T08:26:11;3.50;;;1.60;;
64487;SDS011;50864;45.050;39.014;2023-04-21T08:28:37;3.95;;;1.77;;
64487;SDS011;50864;45.050;39.014;2023-04-21T08:31:03;3.92;;;1.60;;
64487;SDS011;50864;45.050;39.014;2023-04-21T08:33:29;4.62;;;1.60;;
64487;SDS011;50864;45.050;39.014;2023-04-21T08:35:55;3.03;;;1.70;;
64487;SDS011;50864;45.050;39.014;2023-04-21T08:38:21;4.25;;;1.67;;
64487;SDS011;50864;45.050;39.014;2023-04-21T08:40:47;2.80;;;1.70;;
64487;SDS011;50864;45.050;39.014;2023-04-21T08:43:13;2.40;;;1.60;;
64487;SDS011;50864;45.050;39.014;2023-04-21T08:45:39;4.35;;;1.75;;
64487;SDS011;50864;45.050;39.014;2023-04-21T08:48:05;3.85;;;1.45;;
64487;SDS011;50864;45.050;39.014;2023-04-21T08:50:33;4.07;;;1.60;;
64487;SDS011;50864;45.050;39.014;2023-04-21T08:52:59;3.92;;;1.80;;
64487;SDS011;50864;45.050;39.014;2023-04-21T08:55:28;2.03;;;1.50;;
64487;SDS011;50864;45.050;39.014;2023-04-21T08:57:54;3.20;;;1.80;;
64487;SDS011;50864;45.050;39.014;2023-04-21T09:00:20;1.70;;;1.40;;
64487;SDS011;50864;45.050;39.014;2023-04-21T09:02:53;2.03;;;1.30;;
64487;SDS011;50864;45.050;39.014;2023-04-21T09:05:27;1.52;;;1.40;;
64487;SDS011;50864;45.050;39.014;2023-04-21T09:07:53;2.75;;;1.50;;
64487;SDS011;50864;45.050;39.014;2023-04-21T09:10:32;2.15;;;1.35;;
64487;SDS011;50864;45.050;39.014;2023-04-21T09:12:58;2.92;;;1.48;;
64487;SDS011;50864;45.050;39.014;2023-04-21T09:15:23;4.30;;;1.62;;
64487;SDS011;50864;45.050;39.014;2023-04-21T09:17:53;2.60;;;1.70;;
64487;SDS011;50864;45.050;39.014;2023-04-21T09:20:20;2.53;;;1.85;;
64487;SDS011;50864;45.050;39.014;2023-04-21T09:22:49;3.47;;;1.40;;
64487;SDS011;50864;45.050;39.014;2023-04-21T09:25:20;2.30;;;1.65;;
64487;SDS011;50864;45.050;39.014;2023-04-21T09:27:46;3.12;;;1.20;;
64487;SDS011;50864;45.050;39.014;2023-04-21T09:30:12;1.40;;;1.30;;
64487;SDS011;50864;45.050;39.014;2023-04-21T09:32:39;2.58;;;1.60;;
64487;SDS011;50864;45.050;39.014;2023-04-21T09:35:05;3.55;;;1.40;;
64487;SDS011;50864;45.050;39.014;2023-04-21T09:37:33;8.45;;;1.98;;
64487;SDS011;50864;45.050;39.014;2023-04-21T09:40:00;1.75;;;1.45;;
64487;SDS011;50864;45.050;39.014;2023-04-21T09:42:29;4.53;;;1.55;;
64487;SDS011;50864;45.050;39.014;2023-04-21T09:44:55;1.65;;;1.50;;
64487;SDS011;50864;45.050;39.014;2023-04-21T09:47:21;3.62;;;1.30;;
64487;SDS011;50864;45.050;39.014;2023-04-21T09:49:50;2.50;;;1.52;;
64487;SDS011;50864;45.050;39.014;2023-04-21T09:52:17;1.75;;;1.40;;
64487;SDS011;50864;45.050;39.014;2023-04-21T09:54:51;3.67;;;1.87;;
64487;SDS011;50864;45.050;39.014;2023-04-21T09:57:23;3.10;;;1.42;;
64487;SDS011;50864;45.050;39.014;2023-04-21T10:00:00;3.15;;;1.42;;
64487;SDS011;50864;45.050;39.014;2023-04-21T10:02:28;2.35;;;1.70;;
64487;SDS011;50864;45.050;39.014;2023-04-21T10:04:55;2.35;;;1.60;;
64487;SDS011;50864;45.050;39.014;2023-04-21T10:07:20;3.75;;;1.70;;
64487;SDS011;50864;45.050;39.014;2023-04-21T10:09:48;2.25;;;1.40;;
64487;SDS011;50864;45.050;39.014;2023-04-21T10:12:15;3.05;;;1.60;;
64487;SDS011;50864;45.050;39.014;2023-04-21T10:14:42;3.65;;;1.90;;
64487;SDS011;50864;45.050;39.014;2023-04-21T10:17:08;2.37;;;1.60;;
64487;SDS011;50864;45.050;39.014;2023-04-21T10:19:35;3.87;;;1.80;;
64487;SDS011;50864;45.050;39.014;2023-04-21T10:22:07;1.95;;;1.30;;
64487;SDS011;50864;45.050;39.014;2023-04-21T10:24:40;2.50;;;1.58;;
64487;SDS011;50864;45.050;39.014;2023-04-21T10:27:10;4.90;;;2.00;;
64487;SDS011;50864;45.050;39.014;2023-04-21T10:29:36;2.85;;;1.67;;
64487;SDS011;50864;45.050;39.014;2023-04-21T10:32:02;3.78;;;1.75;;
64487;SDS011;50864;45.050;39.014;2023-04-21T10:34:35;4.25;;;1.50;;
64487;SDS011;50864;45.050;39.014;2023-04-21T10:44:41;1.83;;;1.37;;
64487;SDS011;50864;45.050;39.014;2023-04-21T10:47:07;1.30;;;1.20;;
64487;SDS011;50864;45.050;39.014;2023-04-21T10:49:36;2.67;;;1.60;;
64487;SDS011;50864;45.050;39.014;2023-04-21T10:52:03;4.68;;;1.45;;
64487;SDS011;50864;45.050;39.014;2023-04-21T10:57:07;4.60;;;1.83;;
64487;SDS011;50864;45.050;39.014;2023-04-21T10:59:33;2.33;;;1.52;;
64487;SDS011;50864;45.050;39.014;2023-04-21T11:01:58;1.95;;;1.60;;
64487;SDS011;50864;45.050;39.014;2023-04-21T11:04:25;2.25;;;1.42;;
64487;SDS011;50864;45.050;39.014;2023-04-21T11:07:07;4.55;;;1.90;;
64487;SDS011;50864;45.050;39.014;2023-04-21T11:09:33;2.35;;;1.60;;
64487;SDS011;50864;45.050;39.014;2023-04-21T11:11:59;3.92;;;2.10;;
64487;SDS011;50864;45.050;39.014;2023-04-21T11:14:27;3.22;;;1.92;;
64487;SDS011;50864;45.050;39.014;2023-04-21T11:16:53;12.20;;;2.45;;
64487;SDS011;50864;45.050;39.014;2023-04-21T11:19:19;6.00;;;2.30;;
64487;SDS011;50864;45.050;39.014;2023-04-21T11:21:49;5.50;;;2.10;;
64487;SDS011;50864;45.050;39.014;2023-04-21T11:24:15;4.03;;;2.20;;
64487;SDS011;50864;45.050;39.014;2023-04-21T11:26:41;5.22;;;2.60;;
64487;SDS011;50864;45.050;39.014;2023-04-21T11:29:07;8.27;;;2.72;;
64487;SDS011;50864;45.050;39.014;2023-04-21T11:31:35;4.57;;;2.55;;
64487;SDS011;50864;45.050;39.014;2023-04-21T11:34:01;4.57;;;2.20;;
64487;SDS011;50864;45.050;39.014;2023-04-21T11:36:33;3.80;;;2.55;;
64487;SDS011;50864;45.050;39.014;2023-04-21T11:39:02;5.03;;;2.95;;
64487;SDS011;50864;45.050;39.014;2023-04-21T11:41:28;3.87;;;2.40;;
64487;SDS011;50864;45.050;39.014;2023-04-21T11:43:54;4.85;;;2.50;;
64487;SDS011;50864;45.050;39.014;2023-04-21T11:46:24;4.78;;;2.55;;
64487;SDS011;50864;45.050;39.014;2023-04-21T11:48:59;4.70;;;2.60;;
64487;SDS011;50864;45.050;39.014;2023-04-21T11:51:25;3.20;;;2.12;;
64487;SDS011;50864;45.050;39.014;2023-04-21T11:53:52;4.37;;;2.28;;
64487;SDS011;50864;45.050;39.014;2023-04-21T11:56:21;5.47;;;2.50;;
64487;SDS011;50864;45.050;39.014;2023-04-21T11:58:48;6.60;;;2.72;;
64487;SDS011;50864;45.050;39.014;2023-04-21T12:01:15;4.68;;;2.45;;
64487;SDS011;50864;45.050;39.014;2023-04-21T12:03:41;6.90;;;2.95;;
64487;SDS011;50864;45.050;39.014;2023-04-21T12:06:07;5.80;;;2.95;;
64487;SDS011;50864;45.050;39.014;2023-04-21T12:08:33;4.35;;;2.45;;
64487;SDS011;50864;45.050;39.014;2023-04-21T12:10:59;2.70;;;2.15;;
64487;SDS011;50864;45.050;39.014;2023-04-21T12:13:26;4.28;;;2.35;;
64487;SDS011;50864;45.050;39.014;2023-04-21T12:15:52;4.07;;;2.28;;
64487;SDS011;50864;45.050;39.014;2023-04-21T12:18:18;3.37;;;2.10;;
64487;SDS011;50864;45.050;39.014;2023-04-21T12:20:48;6.15;;;2.35;;
64487;SDS011;50864;45.050;39.014;2023-04-21T12:23:14;5.32;;;2.40;;
64487;SDS011;50864;45.050;39.014;2023-04-21T12:25:40;6.70;;;2.30;;
64487;SDS011;50864;45.050;39.014;2023-04-21T12:28:07;3.25;;;2.05;;
64487;SDS011;50864;45.050;39.014;2023-04-21T12:30:32;2.20;;;1.70;;
64487;SDS011;50864;45.050;39.014;2023-04-21T12:32:59;3.97;;;1.85;;
64487;SDS011;50864;45.050;39.014;2023-04-21T12:35:24;3.53;;;1.98;;
64487;SDS011;50864;45.050;39.014;2023-04-21T12:37:50;3.28;;;1.70;;
64487;SDS011;50864;45.050;39.014;2023-04-21T12:40:16;2.62;;;1.62;;
64487;SDS011;50864;45.050;39.014;2023-04-21T12:42:42;2.92;;;1.65;;
64487;SDS011;50864;45.050;39.014;2023-04-21T12:45:08;3.83;;;1.60;;
64487;SDS011;50864;45.050;39.014;2023-04-21T12:47:34;2.17;;;1.60;;
64487;SDS011;50864;45.050;39.014;2023-04-21T12:50:01;2.92;;;1.50;;
64487;SDS011;50864;45.050;39.014;2023-04-21T12:52:29;2.20;;;1.50;;
64487;SDS011;50864;45.050;39.014;2023-04-21T12:54:55;2.42;;;1.58;;
64487;SDS011;50864;45.050;39.014;2023-04-21T12:57:21;3.60;;;1.70;;
64487;SDS011;50864;45.050;39.014;2023-04-21T12:59:46;2.95;;;1.52;;
64487;SDS011;50864;45.050;39.014;2023-04-21T13:02:12;2.20;;;1.77;;
64487;SDS011;50864;45.050;39.014;2023-04-21T13:04:38;4.55;;;2.00;;
64487;SDS011;50864;45.050;39.014;2023-04-21T13:07:09;6.65;;;1.90;;
64487;SDS011;50864;45.050;39.014;2023-04-21T13:09:35;5.22;;;1.70;;
64487;SDS011;50864;45.050;39.014;2023-04-21T13:12:00;4.15;;;2.10;;
64487;SDS011;50864;45.050;39.014;2023-04-21T13:14:26;4.07;;;2.08;;
64487;SDS011;50864;45.050;39.014;2023-04-21T13:16:52;4.03;;;1.70;;
64487;SDS011;50864;45.050;39.014;2023-04-21T13:19:18;3.33;;;1.95;;
64487;SDS011;50864;45.050;39.014;2023-04-21T13:21:43;5.72;;;2.45;;
64487;SDS011;50864;45.050;39.014;2023-04-21T13:24:09;3.40;;;1.90;;
64487;SDS011;50864;45.050;39.014;2023-04-21T13:26:36;4.35;;;1.90;;
64487;SDS011;50864;45.050;39.014;2023-04-21T13:29:02;6.07;;;2.70;;
64487;SDS011;50864;45.050;39.014;2023-04-21T13:31:29;4.28;;;2.50;;
64487;SDS011;50864;45.050;39.014;2023-04-21T13:33:54;4.55;;;2.40;;
64487;SDS011;50864;45.050;39.014;2023-04-21T13:36:21;6.15;;;2.20;;
64487;SDS011;50864;45.050;39.014;2023-04-21T13:38:47;4.20;;;2.00;;
64487;SDS011;50864;45.050;39.014;2023-04-21T13:41:15;4.10;;;1.90;;
64487;SDS011;50864;45.050;39.014;2023-04-21T13:43:41;1.83;;;1.52;;
64487;SDS011;50864;45.050;39.014;2023-04-21T13:46:07;5.28;;;1.67;;
64487;SDS011;50864;45.050;39.014;2023-04-21T13:48:32;3.78;;;1.70;;
64487;SDS011;50864;45.050;39.014;2023-04-21T13:50:58;3.35;;;1.52;;
64487;SDS011;50864;45.050;39.014;2023-04-21T13:53:24;1.95;;;1.45;;
64487;SDS011;50864;45.050;39.014;2023-04-21T13:55:50;4.32;;;1.30;;
64487;SDS011;50864;45.050;39.014;2023-04-21T13:58:15;1.48;;;1.33;;
64487;SDS011;50864;45.050;39.014;2023-04-21T14:00:42;2.22;;;1.50;;
64487;SDS011;50864;45.050;39.014;2023-04-21T14:03:08;4.15;;;1.60;;
64487;SDS011;50864;45.050;39.014;2023-04-21T14:05:34;4.53;;;1.67;;
64487;SDS011;50864;45.050;39.014;2023-04-21T14:07:59;9.07;;;2.00;;
64487;SDS011;50864;45.050;39.014;2023-04-21T14:10:26;4.15;;;1.90;;
64487;SDS011;50864;45.050;39.014;2023-04-21T14:12:51;7.18;;;1.90;;
64487;SDS011;50864;45.050;39.014;2023-04-21T14:15:17;7.15;;;3.12;;
64487;SDS011;50864;45.050;39.014;2023-04-21T14:17:44;3.42;;;1.60;;
64487;SDS011;50864;45.050;39.014;2023-04-21T14:20:10;3.95;;;1.77;;
64487;SDS011;50864;45.050;39.014;2023-04-21T14:22:36;8.32;;;1.92;;
64487;SDS011;50864;45.050;39.014;2023-04-21T14:25:02;4.70;;;1.65;;
64487;SDS011;50864;45.050;39.014;2023-04-21T14:27:28;4.12;;;1.85;;
64487;SDS011;50864;45.050;39.014;2023-04-21T14:29:59;3.92;;;1.70;;
64487;SDS011;50864;45.050;39.014;2023-04-21T14:32:25;3.37;;;1.70;;
64487;SDS011;50864;45.050;39.014;2023-04-21T14:34:51;5.68;;;1.60;;